BEL4RE EBBR-LEBB
Flight info
| Callsign | BEL4RE |
|---|---|
| Flight time | 1h 38m |
| Altitude | 33000 |
| Route | CIV N872 LESDO DCT KOVIN DCT DUCRA UM728 RESMI UN857 DISAK DCT ARKIP DCT ARNAV DCT LMG DCT UVELI DCT OSMOB DCT VAVIX DCT BTZ DCT URUNA/N0419F230 P181 SSN L176 CEGAM |
| Aircraft | A320/M-SDE3FGHIRWY/LB1 |
Departure
| Time | 2026-05-01 09:25 |
|---|---|
| Airport | Brussels Airport (EBBR) |
Arrival
| Time | 2026-05-01 11:04 |
|---|---|
| Airport | Bilbao Airport (LEBB) |
| Time | Latitude | Longitude | Altitude | Speed | Heading |
|---|---|---|---|---|---|
| 2026-05-01 09:17 | 50.89231 | 4.48342 | 143 ft | 0 kts | 159° |
| 2026-05-01 09:22 | 50.89221 | 4.48344 | 143 ft | 3 kts | 172° |
| 2026-05-01 09:22 | 50.89159 | 4.48282 | 140 ft | 7 kts | 235° |
| 2026-05-01 09:23 | 50.89141 | 4.48208 | 138 ft | 8 kts | 251° |
| 2026-05-01 09:23 | 50.89083 | 4.47977 | 135 ft | 11 kts | 249° |
| 2026-05-01 09:24 | 50.88981 | 4.47911 | 125 ft | 14 kts | 161° |
| 2026-05-01 09:24 | 50.88933 | 4.48059 | 122 ft | 17 kts | 104° |
| 2026-05-01 09:24 | 50.89049 | 4.48681 | 136 ft | 74 kts | 71° |
| 2026-05-01 09:25 | 50.89527 | 4.50766 | 160 ft | 161 kts | 71° |
| 2026-05-01 09:25 | 50.90343 | 4.54051 | 1512 ft | 159 kts | 68° |
| 2026-05-01 09:26 | 50.90978 | 4.55459 | 2128 ft | 170 kts | 33° |
| 2026-05-01 09:26 | 50.93346 | 4.54434 | 2787 ft | 220 kts | 300° |
| 2026-05-01 09:26 | 50.93851 | 4.52060 | 3083 ft | 240 kts | 276° |
| 2026-05-01 09:27 | 50.94106 | 4.46310 | 4223 ft | 274 kts | 269° |
| 2026-05-01 09:27 | 50.94180 | 4.43289 | 5119 ft | 280 kts | 269° |
| 2026-05-01 09:27 | 50.94231 | 4.40200 | 6041 ft | 281 kts | 261° |
| 2026-05-01 09:28 | 50.93649 | 4.37266 | 6900 ft | 277 kts | 234° |
| 2026-05-01 09:28 | 50.92384 | 4.35001 | 7725 ft | 275 kts | 219° |
| 2026-05-01 09:28 | 50.90970 | 4.32916 | 8552 ft | 280 kts | 219° |
| 2026-05-01 09:28 | 50.89529 | 4.30784 | 9391 ft | 284 kts | 219° |
| 2026-05-01 09:29 | 50.86596 | 4.26446 | 10714 ft | 303 kts | 219° |
| 2026-05-01 09:29 | 50.84992 | 4.24076 | 10949 ft | 327 kts | 220° |
| 2026-05-01 09:30 | 50.81455 | 4.18835 | 11607 ft | 361 kts | 220° |
| 2026-05-01 09:30 | 50.79612 | 4.16092 | 12272 ft | 366 kts | 220° |
| 2026-05-01 09:30 | 50.75884 | 4.10545 | 13618 ft | 373 kts | 220° |
| 2026-05-01 09:31 | 50.73985 | 4.07723 | 14279 ft | 377 kts | 220° |
| 2026-05-01 09:31 | 50.72061 | 4.04877 | 14901 ft | 380 kts | 220° |
| 2026-05-01 09:31 | 50.68164 | 3.99121 | 16137 ft | 387 kts | 220° |
| 2026-05-01 09:32 | 50.66194 | 3.96219 | 16772 ft | 389 kts | 220° |
| 2026-05-01 09:32 | 50.62201 | 3.90350 | 17947 ft | 395 kts | 220° |
| 2026-05-01 09:32 | 50.60207 | 3.87423 | 18508 ft | 398 kts | 220° |
| 2026-05-01 09:33 | 50.58091 | 3.84506 | 19057 ft | 400 kts | 214° |
| 2026-05-01 09:33 | 50.55735 | 3.82183 | 19582 ft | 400 kts | 204° |
| 2026-05-01 09:33 | 50.50626 | 3.78652 | 20573 ft | 406 kts | 201° |
| 2026-05-01 09:34 | 50.48013 | 3.76877 | 21042 ft | 410 kts | 201° |
| 2026-05-01 09:34 | 50.45406 | 3.75103 | 21480 ft | 413 kts | 201° |
| 2026-05-01 09:34 | 50.40070 | 3.71475 | 22345 ft | 420 kts | 201° |
| 2026-05-01 09:35 | 50.37383 | 3.69652 | 22752 ft | 423 kts | 201° |
| 2026-05-01 09:35 | 50.31939 | 3.65962 | 23519 ft | 429 kts | 201° |
| 2026-05-01 09:35 | 50.29212 | 3.64121 | 23892 ft | 431 kts | 201° |
| 2026-05-01 09:36 | 50.26434 | 3.62250 | 24247 ft | 434 kts | 201° |
| 2026-05-01 09:36 | 50.23650 | 3.60374 | 24589 ft | 436 kts | 201° |
| 2026-05-01 09:36 | 50.20853 | 3.58486 | 24950 ft | 438 kts | 201° |
| 2026-05-01 09:36 | 50.18046 | 3.56594 | 25293 ft | 441 kts | 201° |
| 2026-05-01 09:37 | 50.15297 | 3.54748 | 25619 ft | 442 kts | 201° |
| 2026-05-01 09:37 | 50.09603 | 3.50931 | 26284 ft | 446 kts | 201° |
| 2026-05-01 09:37 | 50.06748 | 3.49021 | 26601 ft | 448 kts | 201° |
| 2026-05-01 09:38 | 50.00992 | 3.45184 | 27189 ft | 451 kts | 201° |
| 2026-05-01 09:38 | 49.98102 | 3.43257 | 27457 ft | 453 kts | 201° |
| 2026-05-01 09:38 | 49.95194 | 3.41322 | 27736 ft | 454 kts | 201° |
| 2026-05-01 09:39 | 49.89350 | 3.37437 | 28250 ft | 457 kts | 201° |
| 2026-05-01 09:39 | 49.86424 | 3.35498 | 28490 ft | 458 kts | 201° |
| 2026-05-01 09:39 | 49.83533 | 3.33586 | 28743 ft | 458 kts | 201° |
| 2026-05-01 09:40 | 49.80599 | 3.31648 | 29064 ft | 457 kts | 201° |
| 2026-05-01 09:40 | 49.74761 | 3.27794 | 29703 ft | 454 kts | 201° |
| 2026-05-01 09:40 | 49.71843 | 3.25869 | 30025 ft | 453 kts | 201° |
| 2026-05-01 09:41 | 49.68946 | 3.23960 | 30334 ft | 452 kts | 201° |
| 2026-05-01 09:41 | 49.63167 | 3.20165 | 30944 ft | 450 kts | 201° |
| 2026-05-01 09:41 | 49.60311 | 3.18298 | 31262 ft | 449 kts | 201° |
| 2026-05-01 09:42 | 49.57442 | 3.16425 | 31559 ft | 447 kts | 201° |
| 2026-05-01 09:42 | 49.54570 | 3.14548 | 31858 ft | 446 kts | 201° |
| 2026-05-01 09:42 | 49.48884 | 3.10741 | 32425 ft | 446 kts | 205° |
| 2026-05-01 09:43 | 49.43635 | 3.05610 | 33014 ft | 445 kts | 211° |
| 2026-05-01 09:43 | 49.41051 | 3.02975 | 33210 ft | 445 kts | 211° |
| 2026-05-01 09:43 | 49.38497 | 3.00378 | 33262 ft | 446 kts | 211° |
| 2026-05-01 09:44 | 49.30723 | 2.92492 | 33246 ft | 446 kts | 211° |
| 2026-05-01 09:45 | 49.25533 | 2.87268 | 33250 ft | 446 kts | 211° |
| 2026-05-01 09:45 | 49.17780 | 2.79467 | 33245 ft | 446 kts | 211° |
| 2026-05-01 09:46 | 49.12588 | 2.74251 | 33247 ft | 445 kts | 210° |
| 2026-05-01 09:46 | 49.07393 | 2.69067 | 33252 ft | 445 kts | 210° |
| 2026-05-01 09:47 | 49.02235 | 2.63927 | 33253 ft | 445 kts | 210° |
| 2026-05-01 09:47 | 48.97046 | 2.58758 | 33249 ft | 445 kts | 210° |
| 2026-05-01 09:48 | 48.91857 | 2.53600 | 33255 ft | 444 kts | 210° |
| 2026-05-01 09:48 | 48.86669 | 2.48473 | 33250 ft | 444 kts | 210° |
| 2026-05-01 09:49 | 48.81519 | 2.43385 | 33248 ft | 444 kts | 210° |
| 2026-05-01 09:49 | 48.76332 | 2.38267 | 33246 ft | 443 kts | 209° |
| 2026-05-01 09:50 | 48.71159 | 2.33181 | 33245 ft | 443 kts | 209° |
| 2026-05-01 09:50 | 48.65979 | 2.28088 | 33244 ft | 443 kts | 209° |
| 2026-05-01 09:51 | 48.60810 | 2.23047 | 33242 ft | 442 kts | 208° |
| 2026-05-01 09:51 | 48.55535 | 2.18968 | 33240 ft | 434 kts | 194° |
| 2026-05-01 09:52 | 48.49708 | 2.16887 | 33234 ft | 430 kts | 188° |
| 2026-05-01 09:52 | 48.43823 | 2.14996 | 33235 ft | 430 kts | 188° |
| 2026-05-01 09:53 | 48.37967 | 2.13101 | 33236 ft | 430 kts | 188° |
| 2026-05-01 09:53 | 48.32149 | 2.11228 | 33233 ft | 430 kts | 188° |
| 2026-05-01 09:54 | 48.26252 | 2.10487 | 33235 ft | 422 kts | 172° |
| 2026-05-01 09:54 | 48.20442 | 2.11678 | 33238 ft | 421 kts | 169° |
| 2026-05-01 09:55 | 48.14634 | 2.12848 | 33235 ft | 422 kts | 173° |
| 2026-05-01 09:55 | 48.08768 | 2.12307 | 33239 ft | 427 kts | 184° |
| 2026-05-01 09:56 | 48.02881 | 2.11162 | 33240 ft | 426 kts | 184° |
| 2026-05-01 09:56 | 47.96984 | 2.10023 | 33237 ft | 426 kts | 184° |
| 2026-05-01 09:57 | 47.91132 | 2.08900 | 33238 ft | 427 kts | 184° |
| 2026-05-01 09:57 | 47.85242 | 2.07776 | 33239 ft | 427 kts | 184° |
| 2026-05-01 09:58 | 47.79345 | 2.06654 | 33238 ft | 426 kts | 184° |
| 2026-05-01 09:58 | 47.73452 | 2.05551 | 33233 ft | 427 kts | 184° |
| 2026-05-01 09:59 | 47.67551 | 2.04438 | 33239 ft | 427 kts | 184° |
| 2026-05-01 09:59 | 47.61747 | 2.02712 | 33234 ft | 432 kts | 196° |
| 2026-05-01 10:00 | 47.56129 | 1.99448 | 33233 ft | 434 kts | 197° |
| 2026-05-01 10:00 | 47.50500 | 1.96183 | 33233 ft | 434 kts | 198° |
| 2026-05-01 10:01 | 47.44859 | 1.92928 | 33232 ft | 434 kts | 198° |
| 2026-05-01 10:01 | 47.39256 | 1.89694 | 33231 ft | 435 kts | 198° |
| 2026-05-01 10:02 | 47.33609 | 1.86444 | 33225 ft | 435 kts | 198° |
| 2026-05-01 10:02 | 47.27950 | 1.83202 | 33228 ft | 436 kts | 198° |
| 2026-05-01 10:03 | 47.22298 | 1.79971 | 33227 ft | 436 kts | 199° |
| 2026-05-01 10:03 | 47.16665 | 1.76752 | 33231 ft | 436 kts | 199° |
| 2026-05-01 10:04 | 47.10981 | 1.73549 | 33233 ft | 436 kts | 199° |
| 2026-05-01 10:04 | 47.06260 | 1.70900 | 33239 ft | 437 kts | 199° |
| 2026-05-01 10:05 | 46.99657 | 1.67207 | 33240 ft | 437 kts | 200° |
| 2026-05-01 10:05 | 46.93969 | 1.64029 | 33245 ft | 437 kts | 200° |
| 2026-05-01 10:06 | 46.89241 | 1.61386 | 33249 ft | 437 kts | 200° |
| 2026-05-01 10:06 | 46.83551 | 1.58210 | 33258 ft | 437 kts | 200° |
| 2026-05-01 10:07 | 46.77856 | 1.55043 | 33264 ft | 437 kts | 201° |
| 2026-05-01 10:07 | 46.72192 | 1.51894 | 33260 ft | 438 kts | 201° |
| 2026-05-01 10:08 | 46.63645 | 1.47152 | 33261 ft | 438 kts | 201° |
| 2026-05-01 10:09 | 46.57933 | 1.44004 | 33261 ft | 438 kts | 201° |
| 2026-05-01 10:09 | 46.52222 | 1.40866 | 33258 ft | 439 kts | 201° |
| 2026-05-01 10:10 | 46.46505 | 1.37744 | 33255 ft | 439 kts | 201° |
| 2026-05-01 10:10 | 46.37973 | 1.33055 | 33263 ft | 439 kts | 201° |
| 2026-05-01 10:11 | 46.32255 | 1.29928 | 33253 ft | 438 kts | 201° |
| 2026-05-01 10:11 | 46.26548 | 1.26818 | 33253 ft | 439 kts | 201° |
| 2026-05-01 10:12 | 46.20830 | 1.23703 | 33253 ft | 439 kts | 202° |
| 2026-05-01 10:13 | 46.12249 | 1.19049 | 33255 ft | 439 kts | 202° |
| 2026-05-01 10:13 | 46.06527 | 1.15964 | 33250 ft | 439 kts | 202° |
| 2026-05-01 10:14 | 45.97922 | 1.11322 | 33261 ft | 440 kts | 202° |
| 2026-05-01 10:14 | 45.92223 | 1.08255 | 33249 ft | 440 kts | 202° |
| 2026-05-01 10:15 | 45.86470 | 1.05163 | 33253 ft | 441 kts | 202° |
| 2026-05-01 10:15 | 45.80925 | 1.01492 | 33252 ft | 437 kts | 215° |
| 2026-05-01 10:16 | 45.76179 | 0.96051 | 33248 ft | 436 kts | 221° |
| 2026-05-01 10:17 | 45.69207 | 0.87710 | 33247 ft | 437 kts | 221° |
| 2026-05-01 10:17 | 45.62193 | 0.79369 | 33242 ft | 437 kts | 221° |
| 2026-05-01 10:18 | 45.55167 | 0.71006 | 33237 ft | 438 kts | 222° |
| 2026-05-01 10:19 | 45.50483 | 0.65445 | 33239 ft | 438 kts | 222° |
| 2026-05-01 10:19 | 45.45814 | 0.59920 | 33234 ft | 438 kts | 222° |
| 2026-05-01 10:20 | 45.38757 | 0.51607 | 33231 ft | 439 kts | 221° |
| 2026-05-01 10:20 | 45.34034 | 0.46059 | 33229 ft | 439 kts | 221° |
| 2026-05-01 10:21 | 45.26988 | 0.37783 | 33229 ft | 440 kts | 221° |
| 2026-05-01 10:22 | 45.19896 | 0.29506 | 33230 ft | 440 kts | 221° |
| 2026-05-01 10:23 | 45.12798 | 0.21244 | 33229 ft | 440 kts | 221° |
| 2026-05-01 10:23 | 45.05687 | 0.12989 | 33225 ft | 440 kts | 221° |
| 2026-05-01 10:24 | 44.96232 | 0.02051 | 33222 ft | 441 kts | 221° |
| 2026-05-01 10:25 | 44.86706 | -0.08919 | 33215 ft | 441 kts | 219° |
| 2026-05-01 10:26 | 44.81957 | -0.14362 | 33212 ft | 442 kts | 219° |
| 2026-05-01 10:27 | 44.72404 | -0.25285 | 33210 ft | 443 kts | 219° |
| 2026-05-01 10:28 | 44.65209 | -0.33483 | 33211 ft | 443 kts | 219° |
| 2026-05-01 10:28 | 44.57674 | -0.41034 | 33205 ft | 443 kts | 214° |
| 2026-05-01 10:29 | 44.49992 | -0.48170 | 33205 ft | 443 kts | 214° |
| 2026-05-01 10:30 | 44.39794 | -0.57948 | 33204 ft | 443 kts | 215° |
| 2026-05-01 10:31 | 44.29644 | -0.67632 | 33200 ft | 443 kts | 214° |
| 2026-05-01 10:32 | 44.22080 | -0.75080 | 33202 ft | 443 kts | 217° |
| 2026-05-01 10:33 | 44.12207 | -0.85310 | 33195 ft | 443 kts | 216° |
| 2026-05-01 10:34 | 44.04741 | -0.92879 | 33197 ft | 442 kts | 216° |
| 2026-05-01 10:34 | 43.99765 | -0.97904 | 33188 ft | 442 kts | 216° |
| 2026-05-01 10:35 | 43.92292 | -1.05462 | 33186 ft | 442 kts | 216° |
| 2026-05-01 10:35 | 43.87345 | -1.10455 | 33192 ft | 442 kts | 216° |
| 2026-05-01 10:36 | 43.79877 | -1.17956 | 33181 ft | 441 kts | 216° |
| 2026-05-01 10:37 | 43.74896 | -1.22934 | 33178 ft | 441 kts | 216° |
| 2026-05-01 10:37 | 43.67447 | -1.30377 | 33182 ft | 442 kts | 216° |
| 2026-05-01 10:38 | 43.62470 | -1.35347 | 33178 ft | 442 kts | 216° |
| 2026-05-01 10:38 | 43.57475 | -1.40314 | 33178 ft | 442 kts | 216° |
| 2026-05-01 10:39 | 43.52484 | -1.45260 | 33176 ft | 442 kts | 215° |
| 2026-05-01 10:39 | 43.47591 | -1.50380 | 33171 ft | 442 kts | 223° |
| 2026-05-01 10:40 | 43.43763 | -1.56992 | 33170 ft | 442 kts | 236° |
| 2026-05-01 10:40 | 43.40358 | -1.64039 | 33174 ft | 443 kts | 236° |
| 2026-05-01 10:41 | 43.36941 | -1.71097 | 33167 ft | 443 kts | 236° |
| 2026-05-01 10:41 | 43.33534 | -1.78087 | 32912 ft | 444 kts | 235° |
| 2026-05-01 10:42 | 43.31791 | -1.81583 | 32167 ft | 445 kts | 232° |
| 2026-05-01 10:42 | 43.29725 | -1.84795 | 31030 ft | 449 kts | 223° |
| 2026-05-01 10:42 | 43.27401 | -1.87675 | 29983 ft | 450 kts | 222° |
| 2026-05-01 10:42 | 43.25068 | -1.90556 | 28837 ft | 452 kts | 222° |
| 2026-05-01 10:43 | 43.22730 | -1.93462 | 27628 ft | 454 kts | 222° |
| 2026-05-01 10:43 | 43.20381 | -1.96387 | 26404 ft | 456 kts | 222° |
| 2026-05-01 10:43 | 43.18037 | -1.99311 | 25514 ft | 451 kts | 222° |
| 2026-05-01 10:43 | 43.15729 | -2.02187 | 24684 ft | 445 kts | 222° |
| 2026-05-01 10:44 | 43.13455 | -2.05014 | 23862 ft | 439 kts | 222° |
| 2026-05-01 10:44 | 43.11204 | -2.07808 | 23076 ft | 433 kts | 222° |
| 2026-05-01 10:44 | 43.08979 | -2.10562 | 22289 ft | 429 kts | 222° |
| 2026-05-01 10:44 | 43.06793 | -2.13256 | 21463 ft | 427 kts | 221° |
| 2026-05-01 10:45 | 43.04594 | -2.15971 | 20672 ft | 424 kts | 223° |
| 2026-05-01 10:45 | 43.02727 | -2.19085 | 19885 ft | 422 kts | 239° |
| 2026-05-01 10:45 | 43.01612 | -2.22775 | 19131 ft | 421 kts | 255° |
| 2026-05-01 10:45 | 43.01333 | -2.26742 | 18423 ft | 420 kts | 272° |
| 2026-05-01 10:46 | 43.01904 | -2.30635 | 17791 ft | 418 kts | 289° |
| 2026-05-01 10:46 | 43.03239 | -2.34152 | 17153 ft | 416 kts | 301° |
| 2026-05-01 10:46 | 43.04267 | -2.36361 | 16750 ft | 414 kts | 301° |
| 2026-05-01 10:46 | 43.06309 | -2.40752 | 15953 ft | 408 kts | 301° |
| 2026-05-01 10:47 | 43.07824 | -2.44025 | 15362 ft | 404 kts | 301° |
| 2026-05-01 10:47 | 43.09313 | -2.47257 | 14758 ft | 401 kts | 300° |
| 2026-05-01 10:47 | 43.10296 | -2.49400 | 14366 ft | 398 kts | 300° |
| 2026-05-01 10:47 | 43.11764 | -2.52613 | 13730 ft | 395 kts | 300° |
| 2026-05-01 10:48 | 43.13212 | -2.55788 | 13092 ft | 392 kts | 300° |
| 2026-05-01 10:48 | 43.14655 | -2.58941 | 12431 ft | 389 kts | 300° |
| 2026-05-01 10:48 | 43.16089 | -2.62065 | 11706 ft | 386 kts | 300° |
| 2026-05-01 10:48 | 43.17514 | -2.65173 | 11154 ft | 380 kts | 301° |
| 2026-05-01 10:49 | 43.18891 | -2.68175 | 11024 ft | 362 kts | 300° |
| 2026-05-01 10:49 | 43.20203 | -2.71040 | 10906 ft | 346 kts | 300° |
| 2026-05-01 10:49 | 43.21450 | -2.73767 | 10781 ft | 327 kts | 300° |
| 2026-05-01 10:49 | 43.22609 | -2.76306 | 10569 ft | 304 kts | 300° |
| 2026-05-01 10:50 | 43.23694 | -2.78697 | 10106 ft | 295 kts | 300° |
| 2026-05-01 10:50 | 43.24775 | -2.81084 | 9979 ft | 294 kts | 300° |
| 2026-05-01 10:50 | 43.25860 | -2.83481 | 9856 ft | 294 kts | 300° |
| 2026-05-01 10:50 | 43.26944 | -2.85869 | 9733 ft | 294 kts | 300° |
| 2026-05-01 10:51 | 43.28013 | -2.88231 | 9574 ft | 295 kts | 301° |
| 2026-05-01 10:51 | 43.29110 | -2.90655 | 9044 ft | 298 kts | 301° |
| 2026-05-01 10:51 | 43.30194 | -2.93042 | 8694 ft | 295 kts | 301° |
| 2026-05-01 10:51 | 43.31234 | -2.95452 | 8011 ft | 292 kts | 298° |
| 2026-05-01 10:52 | 43.32205 | -2.97897 | 7317 ft | 291 kts | 297° |
| 2026-05-01 10:52 | 43.33141 | -3.00340 | 6632 ft | 289 kts | 297° |
| 2026-05-01 10:52 | 43.34063 | -3.02761 | 6145 ft | 282 kts | 297° |
| 2026-05-01 10:52 | 43.34975 | -3.05157 | 5799 ft | 281 kts | 297° |
| 2026-05-01 10:53 | 43.35885 | -3.07539 | 5123 ft | 279 kts | 297° |
| 2026-05-01 10:53 | 43.36756 | -3.09807 | 4977 ft | 255 kts | 297° |
| 2026-05-01 10:53 | 43.37546 | -3.11864 | 4918 ft | 232 kts | 297° |
| 2026-05-01 10:53 | 43.38271 | -3.13748 | 4862 ft | 211 kts | 298° |
| 2026-05-01 10:54 | 43.38921 | -3.15432 | 4729 ft | 192 kts | 298° |
| 2026-05-01 10:54 | 43.39506 | -3.16944 | 4667 ft | 167 kts | 298° |
| 2026-05-01 10:54 | 43.40035 | -3.18310 | 4588 ft | 159 kts | 298° |
| 2026-05-01 10:54 | 43.40552 | -3.19646 | 4520 ft | 157 kts | 298° |
| 2026-05-01 10:55 | 43.41067 | -3.20973 | 4464 ft | 157 kts | 298° |
| 2026-05-01 10:55 | 43.41584 | -3.22301 | 4417 ft | 157 kts | 298° |
| 2026-05-01 10:55 | 43.42121 | -3.23579 | 4348 ft | 157 kts | 310° |
| 2026-05-01 10:55 | 43.42982 | -3.24458 | 4306 ft | 154 kts | 341° |
| 2026-05-01 10:56 | 43.44017 | -3.24662 | 4243 ft | 149 kts | 10° |
| 2026-05-01 10:56 | 43.44972 | -3.24195 | 4190 ft | 144 kts | 38° |
| 2026-05-01 10:56 | 43.45647 | -3.23226 | 4140 ft | 140 kts | 63° |
| 2026-05-01 10:56 | 43.45946 | -3.21978 | 4087 ft | 137 kts | 87° |
| 2026-05-01 10:57 | 43.45827 | -3.20693 | 4034 ft | 136 kts | 110° |
| 2026-05-01 10:57 | 43.45326 | -3.19613 | 3984 ft | 136 kts | 134° |
| 2026-05-01 10:57 | 43.44547 | -3.18861 | 3940 ft | 137 kts | 146° |
| 2026-05-01 10:57 | 43.43744 | -3.18171 | 3883 ft | 137 kts | 146° |
| 2026-05-01 10:58 | 43.42934 | -3.17468 | 3832 ft | 138 kts | 145° |
| 2026-05-01 10:58 | 43.42126 | -3.16767 | 3794 ft | 137 kts | 146° |
| 2026-05-01 10:58 | 43.41314 | -3.16064 | 3745 ft | 137 kts | 145° |
| 2026-05-01 10:58 | 43.40506 | -3.15363 | 3699 ft | 137 kts | 145° |
| 2026-05-01 10:59 | 43.39698 | -3.14663 | 3629 ft | 137 kts | 145° |
| 2026-05-01 10:59 | 43.38889 | -3.13961 | 3567 ft | 137 kts | 145° |
| 2026-05-01 10:59 | 43.38249 | -3.13035 | 3466 ft | 135 kts | 114° |
| 2026-05-01 10:59 | 43.37826 | -3.11902 | 3298 ft | 134 kts | 121° |
| 2026-05-01 11:00 | 43.37357 | -3.10774 | 3121 ft | 134 kts | 118° |
| 2026-05-01 11:00 | 43.36919 | -3.09645 | 2941 ft | 135 kts | 117° |
| 2026-05-01 11:00 | 43.36494 | -3.08513 | 2767 ft | 135 kts | 116° |
| 2026-05-01 11:00 | 43.36066 | -3.07355 | 2581 ft | 136 kts | 115° |
| 2026-05-01 11:01 | 43.35638 | -3.06188 | 2387 ft | 136 kts | 115° |
| 2026-05-01 11:01 | 43.35208 | -3.05014 | 2201 ft | 138 kts | 115° |
| 2026-05-01 11:01 | 43.34778 | -3.03836 | 2038 ft | 139 kts | 115° |
| 2026-05-01 11:01 | 43.34343 | -3.02644 | 1806 ft | 139 kts | 115° |
| 2026-05-01 11:02 | 43.33910 | -3.01459 | 1630 ft | 141 kts | 115° |
| 2026-05-01 11:02 | 43.33476 | -3.00271 | 1435 ft | 140 kts | 116° |
| 2026-05-01 11:02 | 43.33037 | -2.99070 | 1245 ft | 140 kts | 116° |
| 2026-05-01 11:02 | 43.32600 | -2.97873 | 1047 ft | 140 kts | 116° |
| 2026-05-01 11:03 | 43.32170 | -2.96695 | 854 ft | 140 kts | 116° |
| 2026-05-01 11:03 | 43.31733 | -2.95498 | 667 ft | 140 kts | 116° |
| 2026-05-01 11:03 | 43.31301 | -2.94318 | 471 ft | 140 kts | 116° |
| 2026-05-01 11:03 | 43.30866 | -2.93129 | 292 ft | 139 kts | 116° |
| 2026-05-01 11:04 | 43.30432 | -2.91945 | 143 ft | 138 kts | 116° |
| 2026-05-01 11:04 | 43.30042 | -2.90887 | 125 ft | 106 kts | 116° |
| 2026-05-01 11:04 | 43.29918 | -2.90534 | 124 ft | 11 kts | 108° |
| 2026-05-01 11:04 | 43.29914 | -2.90435 | 126 ft | 9 kts | 89° |
| 2026-05-01 11:05 | 43.29919 | -2.90356 | 126 ft | 7 kts | 84° |
| 2026-05-01 11:05 | 43.29924 | -2.90296 | 125 ft | 6 kts | 83° |
| 2026-05-01 11:05 | 43.29937 | -2.90245 | 125 ft | 5 kts | 54° |
| 2026-05-01 11:05 | 43.29978 | -2.90230 | 124 ft | 9 kts | 346° |
| 2026-05-01 11:06 | 43.30015 | -2.90287 | 123 ft | 7 kts | 295° |
| 2026-05-01 11:06 | 43.30019 | -2.90300 | 127 ft | 0 kts | 295° |
| 2026-05-01 11:07 | 43.30070 | -2.90440 | 127 ft | 9 kts | 297° |
| 2026-05-01 11:07 | 43.30095 | -2.90510 | 126 ft | 8 kts | 296° |
| 2026-05-01 11:07 | 43.30122 | -2.90564 | 124 ft | 6 kts | 331° |
| 2026-05-01 11:07 | 43.30167 | -2.90563 | 125 ft | 6 kts | 15° |
| 2026-05-01 11:08 | 43.30202 | -2.90541 | 125 ft | 5 kts | 30° |
| 2026-05-01 11:08 | 43.30208 | -2.90504 | 125 ft | 4 kts | 91° |
| 2026-05-01 11:08 | 43.30229 | -2.90445 | 125 ft | 3 kts | 56° |
| 2026-05-01 11:09 | 43.30239 | -2.90424 | 127 ft | 2 kts | 56° |
| 2026-05-01 11:09 | 43.30243 | -2.90417 | 124 ft | 0 kts | 56° |